Time;durP1;ratioP1;P1;durP2;ratioP2;P2;SDS_P1;SDS_P2;PMS_P1;PMS_P2;Temp;Humidity;BMP_temperature;BMP_pressure;BME280_temperature;BME280_humidity;BME280_pressure;Samples;Min_cycle;Max_cycle;Signal;HPM_P1;HPM_P2
2023/05/26 00:01:15;;;;;;;10.73;6.00;;;14.10;1.00;;;;;;4988302;28;20502;-71
2023/05/26 00:03:44;;;;;;;13.83;6.53;;;14.00;1.00;;;;;;4983571;28;21105;-71
2023/05/26 00:06:20;;;;;;;10.03;5.47;;;13.90;1.00;;;;;;4985101;28;20458;-72
2023/05/26 00:08:47;;;;;;;12.47;6.60;;;13.90;1.00;;;;;;4989123;28;20522;-72
2023/05/26 00:11:14;;;;;;;15.80;6.30;;;13.90;1.00;;;;;;4988378;28;21001;-71
2023/05/26 00:13:43;;;;;;;13.00;5.90;;;13.80;1.00;;;;;;4987148;28;21198;-73
2023/05/26 00:16:10;;;;;;;10.30;5.23;;;13.80;1.00;;;;;;4988095;28;20527;-71
2023/05/26 00:18:37;;;;;;;11.87;6.53;;;13.80;1.00;;;;;;4993323;28;20541;-72
2023/05/26 00:21:04;;;;;;;11.33;5.87;;;13.70;1.00;;;;;;4992553;28;20487;-72
2023/05/26 00:23:31;;;;;;;14.10;6.10;;;13.70;1.00;;;;;;4992155;28;20662;-71
2023/05/26 00:25:59;;;;;;;13.27;7.07;;;13.70;1.00;;;;;;4993361;28;20888;-71
2023/05/26 00:28:26;;;;;;;15.07;6.50;;;13.60;1.00;;;;;;4988849;28;20591;-71
2023/05/26 00:30:57;;;;;;;9.87;5.97;;;13.70;1.00;;;;;;4988577;28;20443;-72
2023/05/26 00:33:24;;;;;;;9.23;5.83;;;13.60;1.00;;;;;;4983941;28;20586;-72
2023/05/26 00:35:51;;;;;;;10.77;6.47;;;13.60;1.00;;;;;;4989665;28;20989;-71
2023/05/26 00:38:18;;;;;;;13.43;5.90;;;13.60;1.00;;;;;;4982284;28;20459;-72
2023/05/26 00:40:45;;;;;;;13.47;6.77;;;13.60;1.00;;;;;;4978108;28;20972;-71
2023/05/26 00:43:12;;;;;;;11.73;5.60;;;13.50;1.00;;;;;;4986375;28;20489;-71
2023/05/26 00:45:39;;;;;;;12.90;7.07;;;13.40;1.00;;;;;;4988532;28;20462;-72
2023/05/26 00:48:08;;;;;;;12.40;6.33;;;13.40;1.00;;;;;;4989274;28;20569;-72
2023/05/26 00:50:35;;;;;;;11.90;6.07;;;13.40;1.00;;;;;;4987361;28;20846;-72
2023/05/26 00:53:02;;;;;;;10.97;6.20;;;13.30;1.00;;;;;;4989040;28;20486;-70
2023/05/26 00:55:30;;;;;;;17.70;7.47;;;13.30;1.00;;;;;;4989381;28;20476;-71
2023/05/26 00:57:58;;;;;;;14.73;7.03;;;13.20;1.00;;;;;;4985056;28;20465;-72
2023/05/26 01:00:26;;;;;;;13.57;6.67;;;13.10;1.00;;;;;;4991606;28;22338;-72
2023/05/26 01:02:57;;;;;;;13.50;7.00;;;13.10;1.00;;;;;;4985223;28;20475;-70
2023/05/26 01:05:25;;;;;;;15.53;7.40;;;13.00;1.00;;;;;;4984761;28;20491;-71
2023/05/26 01:07:53;;;;;;;15.07;8.60;;;13.00;1.00;;;;;;4987756;28;20965;-71
2023/05/26 01:10:21;;;;;;;14.30;7.37;;;13.00;1.00;;;;;;4986016;28;20456;-70
2023/05/26 01:12:54;;;;;;;11.53;7.67;;;12.90;1.00;;;;;;4980966;28;20500;-70
2023/05/26 01:15:26;;;;;;;11.80;6.60;;;12.90;1.00;;;;;;4987558;28;20449;-70
2023/05/26 01:17:59;;;;;;;14.47;7.60;;;12.80;1.00;;;;;;4985275;28;20531;-70
2023/05/26 01:20:31;;;;;;;11.63;6.33;;;12.80;1.00;;;;;;4979968;28;20552;-70
2023/05/26 01:23:15;;;;;;;13.23;6.80;;;12.70;1.00;;;;;;4987853;28;20464;-70
2023/05/26 01:25:56;;;;;;;15.63;7.67;;;12.70;1.00;;;;;;4989944;28;20548;-71
2023/05/26 01:28:28;;;;;;;16.57;7.33;;;12.70;1.00;;;;;;4984313;28;20483;-71
2023/05/26 01:30:56;;;;;;;12.93;7.30;;;12.60;1.00;;;;;;4986206;28;20587;-71
2023/05/26 01:33:23;;;;;;;15.40;7.20;;;12.60;1.00;;;;;;4985488;28;20464;-71
2023/05/26 01:35:50;;;;;;;14.10;7.33;;;12.60;1.00;;;;;;4987488;28;20506;-72
2023/05/26 01:38:18;;;;;;;16.23;7.43;;;12.60;1.00;;;;;;4987897;28;20501;-73
2023/05/26 01:40:46;;;;;;;13.23;7.40;;;12.60;1.00;;;;;;4977713;28;21018;-71
2023/05/26 01:43:17;;;;;;;15.60;6.43;;;12.60;1.00;;;;;;4976040;28;20461;-71
2023/05/26 01:45:53;;;;;;;17.37;7.57;;;12.60;1.00;;;;;;4984793;28;20514;-71
2023/05/26 01:48:20;;;;;;;12.90;6.60;;;12.50;1.00;;;;;;4987304;28;20425;-71
2023/05/26 01:50:52;;;;;;;15.53;6.63;;;12.50;1.00;;;;;;4991587;28;20461;-70
2023/05/26 01:53:24;;;;;;;18.73;7.63;;;12.50;1.00;;;;;;4989728;28;20520;-71
2023/05/26 01:55:53;;;;;;;21.53;8.00;;;12.50;1.00;;;;;;4986923;28;20461;-71
2023/05/26 01:58:22;;;;;;;12.47;6.60;;;12.40;1.00;;;;;;4983021;28;20475;-71
2023/05/26 02:00:52;;;;;;;18.43;7.10;;;12.40;1.00;;;;;;4987625;28;20466;-71
2023/05/26 02:03:20;;;;;;;17.00;8.20;;;12.40;1.00;;;;;;4987870;28;20480;-71
2023/05/26 02:05:47;;;;;;;11.03;6.33;;;12.40;1.00;;;;;;4987621;28;20580;-70
2023/05/26 02:08:14;;;;;;;12.83;7.00;;;12.40;1.00;;;;;;4991337;28;20554;-70
2023/05/26 02:10:41;;;;;;;14.07;6.90;;;12.40;1.00;;;;;;4983394;28;20527;-71
2023/05/26 02:13:09;;;;;;;11.93;7.20;;;12.30;1.00;;;;;;4987429;28;20505;-71
2023/05/26 02:15:36;;;;;;;12.60;7.80;;;12.30;1.00;;;;;;4983448;28;20469;-71
2023/05/26 02:18:04;;;;;;;15.40;7.27;;;12.20;1.00;;;;;;4986001;28;21293;-71
2023/05/26 02:20:31;;;;;;;13.10;7.43;;;12.20;1.00;;;;;;4984786;28;20465;-71
2023/05/26 02:22:58;;;;;;;12.00;7.40;;;12.10;1.00;;;;;;4985844;28;20475;-71
2023/05/26 02:25:26;;;;;;;11.03;7.07;;;12.10;1.00;;;;;;4985612;28;20475;-71
2023/05/26 02:27:53;;;;;;;13.17;7.90;;;12.10;1.00;;;;;;4984727;28;20451;-70
2023/05/26 02:30:20;;;;;;;15.70;7.00;;;12.10;1.00;;;;;;4981959;28;20469;-71
2023/05/26 02:32:47;;;;;;;17.17;8.60;;;12.00;1.00;;;;;;4985677;28;21107;-70
2023/05/26 02:35:16;;;;;;;17.60;7.90;;;12.00;1.00;;;;;;4980994;28;20460;-70
2023/05/26 02:37:43;;;;;;;13.73;7.30;;;11.90;1.00;;;;;;4981660;28;20464;-71
2023/05/26 02:40:10;;;;;;;11.93;7.30;;;11.90;1.00;;;;;;4982560;28;20470;-70
2023/05/26 02:42:37;;;;;;;12.03;7.03;;;11.90;1.00;;;;;;4985439;28;20579;-71
2023/05/26 02:45:05;;;;;;;16.30;6.87;;;11.90;1.00;;;;;;4983791;28;20559;-70
2023/05/26 02:47:32;;;;;;;16.57;7.33;;;11.90;1.00;;;;;;4984113;28;20518;-70
2023/05/26 02:49:59;;;;;;;16.10;7.43;;;11.90;1.00;;;;;;4977946;28;20459;-70
2023/05/26 02:52:28;;;;;;;17.97;8.00;;;11.80;1.00;;;;;;4988405;28;20532;-70
2023/05/26 02:54:55;;;;;;;17.97;7.73;;;11.80;1.00;;;;;;4984886;28;20464;-69
2023/05/26 02:57:22;;;;;;;17.53;8.20;;;11.80;1.00;;;;;;4974526;28;21888;-72
2023/05/26 02:59:49;;;;;;;16.63;6.77;;;11.80;1.00;;;;;;4975102;28;20986;-69
2023/05/26 03:02:16;;;;;;;17.60;7.90;;;11.70;1.00;;;;;;4974845;28;20484;-71
2023/05/26 03:04:43;;;;;;;17.03;7.43;;;11.70;1.00;;;;;;4982568;28;20456;-70
2023/05/26 03:07:10;;;;;;;15.13;8.50;;;11.70;1.00;;;;;;4983710;28;21044;-70
2023/05/26 03:09:38;;;;;;;13.87;7.17;;;11.80;1.00;;;;;;4984614;28;21052;-71
2023/05/26 03:12:06;;;;;;;15.00;6.60;;;11.90;1.00;;;;;;4971150;28;20555;-70
2023/05/26 03:14:34;;;;;;;16.13;8.50;;;11.80;1.00;;;;;;4979575;28;20546;-71
2023/05/26 03:17:01;;;;;;;14.30;6.67;;;11.90;1.00;;;;;;4980895;28;20476;-70
2023/05/26 03:19:28;;;;;;;11.77;6.97;;;11.90;1.00;;;;;;4978043;28;20481;-71
2023/05/26 03:21:56;;;;;;;11.93;7.07;;;12.00;1.00;;;;;;4978339;28;20480;-71
2023/05/26 03:24:23;;;;;;;10.90;7.40;;;11.90;1.00;;;;;;4982304;28;20578;-71
2023/05/26 03:26:52;;;;;;;17.27;9.43;;;12.00;1.00;;;;;;4979892;28;21295;-70
2023/05/26 03:29:19;;;;;;;21.13;9.50;;;12.00;1.00;;;;;;4977256;28;20463;-70
2023/05/26 03:31:49;;;;;;;14.07;7.87;;;12.00;1.00;;;;;;4961310;28;20472;-70
2023/05/26 03:34:17;;;;;;;15.40;7.20;;;11.90;1.00;;;;;;4986062;28;20461;-70
2023/05/26 03:36:46;;;;;;;20.30;8.80;;;11.90;1.00;;;;;;4978325;28;20484;-71
2023/05/26 03:39:13;;;;;;;19.87;8.30;;;11.90;1.00;;;;;;4985725;28;20479;-71
2023/05/26 03:41:40;;;;;;;30.57;9.27;;;12.00;1.00;;;;;;4984582;28;20563;-71
2023/05/26 03:44:08;;;;;;;28.90;9.50;;;11.90;1.00;;;;;;4985200;28;20487;-71
2023/05/26 03:46:35;;;;;;;15.17;5.80;;;11.90;1.00;;;;;;4983965;28;20547;-70
2023/05/26 03:49:02;;;;;;;19.17;9.07;;;11.90;1.00;;;;;;4984591;28;20469;-71
2023/05/26 03:51:30;;;;;;;21.37;7.93;;;12.00;1.00;;;;;;4980557;28;21174;-70
2023/05/26 03:53:57;;;;;;;22.43;7.90;;;12.00;1.00;;;;;;4987462;28;20471;-70
2023/05/26 03:56:25;;;;;;;17.93;7.00;;;12.10;1.00;;;;;;4987263;28;20456;-71
2023/05/26 03:58:52;;;;;;;12.27;6.47;;;12.10;1.00;;;;;;4986252;28;20871;-71
2023/05/26 04:01:22;;;;;;;18.73;9.90;;;12.10;1.00;;;;;;4989046;28;20573;-70
2023/05/26 04:03:49;;;;;;;19.20;7.60;;;12.10;1.00;;;;;;4983949;28;21267;-70
2023/05/26 04:06:16;;;;;;;17.87;7.10;;;12.20;1.00;;;;;;4991001;28;20888;-71
2023/05/26 04:08:43;;;;;;;12.60;7.33;;;12.20;1.00;;;;;;4990570;28;21300;-71
2023/05/26 04:11:10;;;;;;;16.00;8.23;;;12.30;1.00;;;;;;4987781;28;20941;-71
2023/05/26 04:13:39;;;;;;;15.03;8.07;;;12.40;1.00;;;;;;4992798;28;20520;-72
2023/05/26 04:16:07;;;;;;;17.47;7.93;;;12.40;1.00;;;;;;4991779;28;20488;-71
2023/05/26 04:18:36;;;;;;;15.93;7.60;;;12.40;1.00;;;;;;4992421;28;20459;-71
2023/05/26 04:21:03;;;;;;;19.43;11.43;;;12.40;1.00;;;;;;4993949;28;21315;-70
2023/05/26 04:23:30;;;;;;;10.53;6.30;;;12.40;1.00;;;;;;4991547;28;20612;-74
2023/05/26 04:25:57;;;;;;;13.00;7.03;;;12.50;1.00;;;;;;4991507;28;20552;-74
2023/05/26 04:28:25;;;;;;;25.90;8.77;;;12.40;1.00;;;;;;4990074;28;20465;-75
2023/05/26 04:30:52;;;;;;;19.07;8.47;;;12.50;1.00;;;;;;4987115;28;20939;-74
2023/05/26 04:33:20;;;;;;;23.90;7.77;;;12.50;1.00;;;;;;4990262;28;20436;-76
2023/05/26 04:35:48;;;;;;;19.50;7.90;;;12.50;1.00;;;;;;4991314;28;20535;-74
2023/05/26 04:38:15;;;;;;;22.03;7.97;;;12.60;1.00;;;;;;4990864;28;21173;-75
2023/05/26 04:40:44;;;;;;;15.07;7.63;;;12.70;1.00;;;;;;4990377;28;20523;-75
2023/05/26 04:43:11;;;;;;;19.90;7.87;;;12.80;1.00;;;;;;4989694;28;20465;-75
2023/05/26 04:45:40;;;;;;;23.57;8.50;;;12.80;1.00;;;;;;4975486;28;20476;-74
2023/05/26 04:48:08;;;;;;;14.20;7.90;;;12.80;1.00;;;;;;4987035;28;20464;-75
2023/05/26 04:50:38;;;;;;;15.23;7.43;;;12.80;1.00;;;;;;4987136;28;20583;-74
2023/05/26 04:53:06;;;;;;;16.17;7.60;;;12.80;1.00;;;;;;4993125;28;20500;-75
2023/05/26 04:55:35;;;;;;;15.90;8.27;;;12.80;1.00;;;;;;4992126;28;20520;-76
2023/05/26 04:58:03;;;;;;;18.40;7.50;;;12.90;1.00;;;;;;4993314;28;21173;-76
2023/05/26 05:00:31;;;;;;;24.37;15.13;;;13.00;1.00;;;;;;4989280;28;20480;-76
2023/05/26 05:02:59;;;;;;;16.43;7.80;;;13.10;1.00;;;;;;4987608;28;20477;-76
2023/05/26 05:05:26;;;;;;;14.50;7.47;;;13.10;1.00;;;;;;4991204;28;20549;-75
2023/05/26 05:07:53;;;;;;;19.93;7.80;;;13.20;1.00;;;;;;4991268;28;20462;-76
2023/05/26 05:10:21;;;;;;;14.07;7.37;;;13.30;1.00;;;;;;4985192;28;20520;-76
2023/05/26 05:12:48;;;;;;;16.10;6.60;;;13.30;1.00;;;;;;4986977;28;20465;-76
2023/05/26 05:15:18;;;;;;;15.60;10.57;;;13.40;1.00;;;;;;4995633;28;20527;-75
2023/05/26 05:17:46;;;;;;;23.40;8.70;;;13.40;1.00;;;;;;4990223;28;21191;-75
2023/05/26 05:20:13;;;;;;;23.77;8.30;;;13.50;1.00;;;;;;4982107;28;20464;-75
2023/05/26 05:22:40;;;;;;;17.23;7.63;;;13.60;1.00;;;;;;4984319;28;20913;-75
2023/05/26 05:25:12;;;;;;;27.90;9.53;;;13.70;1.00;;;;;;4982263;28;20985;-76
2023/05/26 05:27:40;;;;;;;15.87;7.43;;;13.70;1.00;;;;;;4982558;28;20459;-76
2023/05/26 05:30:08;;;;;;;19.93;7.93;;;13.80;1.00;;;;;;4988148;28;20927;-75
2023/05/26 05:32:41;;;;;;;23.33;7.27;;;13.80;1.00;;;;;;4976949;28;20560;-76
2023/05/26 05:35:10;;;;;;;20.20;9.50;;;13.90;1.00;;;;;;4985651;28;20556;-77
2023/05/26 05:37:37;;;;;;;17.97;7.37;;;13.90;1.00;;;;;;4982389;28;20464;-77
2023/05/26 05:40:05;;;;;;;15.47;8.00;;;14.10;1.00;;;;;;4987221;28;20511;-76
2023/05/26 05:42:32;;;;;;;14.40;8.03;;;14.20;1.00;;;;;;4982742;28;20451;-74
2023/05/26 05:45:00;;;;;;;18.80;9.47;;;14.30;1.00;;;;;;4983340;28;20481;-77
2023/05/26 05:47:27;;;;;;;24.13;8.47;;;14.50;1.00;;;;;;4990278;28;20560;-76
2023/05/26 05:49:54;;;;;;;15.97;7.60;;;14.50;1.00;;;;;;4988968;28;20494;-78
2023/05/26 05:52:21;;;;;;;20.17;8.53;;;14.60;1.00;;;;;;4992753;28;20446;-77
2023/05/26 05:54:48;;;;;;;16.70;8.67;;;14.80;1.00;;;;;;4995103;28;20509;-77
2023/05/26 05:57:15;;;;;;;15.40;7.30;;;14.80;1.00;;;;;;4988554;28;21077;-76
2023/05/26 05:59:42;;;;;;;13.23;6.40;;;14.90;1.00;;;;;;4994979;28;20556;-76
2023/05/26 06:02:11;;;;;;;16.37;8.20;;;15.00;1.00;;;;;;4985284;28;20459;-75
2023/05/26 06:04:38;;;;;;;21.93;8.00;;;15.10;1.00;;;;;;4987508;28;20537;-74
2023/05/26 06:07:05;;;;;;;15.40;7.13;;;15.20;1.00;;;;;;4979325;28;20483;-73
2023/05/26 06:09:33;;;;;;;13.30;6.80;;;15.30;1.00;;;;;;4982766;28;20869;-75
2023/05/26 06:12:00;;;;;;;14.33;6.17;;;15.30;1.00;;;;;;4984381;28;20482;-75
2023/05/26 06:14:27;;;;;;;19.00;7.80;;;15.40;1.00;;;;;;4986145;28;20923;-75
2023/05/26 06:16:54;;;;;;;14.40;7.37;;;15.40;1.00;;;;;;4982278;28;20488;-76
2023/05/26 06:19:22;;;;;;;15.90;8.30;;;15.50;1.00;;;;;;4980824;28;20478;-74
2023/05/26 06:21:51;;;;;;;16.27;7.10;;;15.50;1.00;;;;;;4983868;28;20440;-75
2023/05/26 06:24:18;;;;;;;18.53;8.20;;;15.50;1.00;;;;;;4977274;28;21074;-75
2023/05/26 06:26:45;;;;;;;19.30;8.07;;;15.60;1.00;;;;;;4981972;28;20486;-75
2023/05/26 06:29:12;;;;;;;15.47;7.13;;;15.70;1.00;;;;;;4980176;28;20475;-74
2023/05/26 06:31:39;;;;;;;45.10;18.77;;;15.90;1.00;;;;;;4981345;28;20566;-79
2023/05/26 06:34:06;;;;;;;16.97;8.00;;;15.90;1.00;;;;;;4978084;28;20477;-76
2023/05/26 06:36:35;;;;;;;18.13;7.47;;;16.00;1.00;;;;;;4980025;28;20503;-74
2023/05/26 06:39:02;;;;;;;12.40;7.03;;;16.10;1.00;;;;;;4975628;28;20542;-77
2023/05/26 06:41:32;;;;;;;13.33;6.60;;;16.10;1.00;;;;;;4977198;28;20467;-76
2023/05/26 06:43:59;;;;;;;16.00;6.70;;;16.20;1.00;;;;;;4977796;28;20503;-76
2023/05/26 06:46:26;;;;;;;13.40;6.00;;;16.20;1.00;;;;;;4976905;28;20483;-76
2023/05/26 06:48:53;;;;;;;20.13;6.40;;;16.30;1.00;;;;;;4981246;28;23203;-76
2023/05/26 06:51:20;;;;;;;12.87;6.60;;;16.40;1.00;;;;;;4978544;28;20479;-76
2023/05/26 06:53:48;;;;;;;10.80;5.70;;;16.50;1.00;;;;;;4977670;28;21223;-72
2023/05/26 06:56:15;;;;;;;10.67;5.50;;;16.60;1.00;;;;;;4984215;28;20508;-73
2023/05/26 06:58:42;;;;;;;12.77;6.50;;;16.50;1.00;;;;;;4978189;28;20480;-74
2023/05/26 07:01:09;;;;;;;22.47;7.03;;;16.50;1.00;;;;;;4979707;28;20562;-75
2023/05/26 07:03:36;;;;;;;19.67;7.97;;;16.60;1.00;;;;;;4972682;28;20554;-77
2023/05/26 07:06:03;;;;;;;12.77;5.93;;;16.60;1.00;;;;;;4981555;28;20451;-75
2023/05/26 07:08:33;;;;;;;12.90;6.13;;;16.80;1.00;;;;;;4961347;28;20552;-74
2023/05/26 07:11:01;;;;;;;16.83;7.27;;;16.80;1.00;;;;;;4973060;28;20452;-75
2023/05/26 07:13:28;;;;;;;13.57;6.03;;;16.90;1.00;;;;;;4977704;28;21025;-75
2023/05/26 07:15:55;;;;;;;11.87;5.63;;;16.80;1.00;;;;;;4973767;28;20510;-74
2023/05/26 07:18:22;;;;;;;12.70;5.77;;;16.90;1.00;;;;;;4981769;28;20546;-77
2023/05/26 07:20:49;;;;;;;66.70;15.20;;;16.90;1.00;;;;;;4980901;28;20640;-75
2023/05/26 07:23:17;;;;;;;28.87;8.90;;;16.90;1.00;;;;;;4984789;28;20509;-75
2023/05/26 07:25:43;;;;;;;16.60;6.90;;;16.90;1.00;;;;;;4985951;28;20839;-75
2023/05/26 07:28:12;;;;;;;20.27;7.00;;;17.00;1.00;;;;;;4983176;28;20471;-74
2023/05/26 07:30:39;;;;;;;13.73;5.80;;;17.20;1.00;;;;;;4988006;28;20522;-75
2023/05/26 07:33:06;;;;;;;12.90;5.73;;;17.10;1.00;;;;;;4984211;28;20478;-77
2023/05/26 07:35:33;;;;;;;12.60;7.17;;;17.10;1.00;;;;;;4986561;28;20464;-75
2023/05/26 07:38:00;;;;;;;11.57;6.87;;;17.30;1.00;;;;;;4989541;28;20484;-74
2023/05/26 07:40:29;;;;;;;15.20;5.10;;;17.50;1.00;;;;;;4989842;28;20479;-74
2023/05/26 07:42:56;;;;;;;8.73;5.10;;;17.70;1.00;;;;;;4983424;28;20453;-76
2023/05/26 07:45:24;;;;;;;14.10;6.80;;;17.80;1.00;;;;;;4985199;28;20457;-76
2023/05/26 07:47:51;;;;;;;16.07;5.70;;;18.00;1.00;;;;;;4986269;28;20571;-76
2023/05/26 07:50:18;;;;;;;14.30;5.30;;;18.00;1.00;;;;;;4978501;28;20567;-75
2023/05/26 07:52:46;;;;;;;16.30;6.37;;;18.10;1.00;;;;;;4985396;28;21130;-76
2023/05/26 07:55:13;;;;;;;10.90;5.50;;;18.10;1.00;;;;;;4988585;28;20465;-74
2023/05/26 07:57:40;;;;;;;10.30;5.20;;;18.20;1.00;;;;;;4981816;28;21291;-74
2023/05/26 08:00:08;;;;;;;13.53;5.67;;;18.20;1.00;;;;;;4982955;28;20491;-75
2023/05/26 08:02:38;;;;;;;15.23;5.67;;;18.10;1.00;;;;;;4987908;28;20464;-75
2023/05/26 08:05:05;;;;;;;11.10;5.17;;;18.30;1.00;;;;;;4987815;28;20460;-74
2023/05/26 08:07:33;;;;;;;11.30;5.50;;;18.40;1.00;;;;;;4982226;28;20473;-75
2023/05/26 08:10:00;;;;;;;13.07;5.53;;;18.60;1.00;;;;;;4985815;28;20557;-76
2023/05/26 08:12:28;;;;;;;18.60;6.17;;;18.70;1.00;;;;;;4979828;28;20474;-74
2023/05/26 08:14:55;;;;;;;12.33;6.40;;;18.80;1.00;;;;;;4983300;28;20915;-76
2023/05/26 08:17:22;;;;;;;13.00;5.93;;;19.00;1.00;;;;;;4981062;28;20484;-74
2023/05/26 08:19:51;;;;;;;12.03;5.30;;;19.10;1.00;;;;;;4981902;28;20485;-76
2023/05/26 08:22:18;;;;;;;14.40;6.07;;;19.10;1.00;;;;;;4986440;28;20551;-76
2023/05/26 08:24:45;;;;;;;16.03;5.90;;;19.20;1.00;;;;;;4969373;28;20452;-75
2023/05/26 08:27:12;;;;;;;16.77;5.53;;;19.20;1.00;;;;;;4983361;28;20927;-73
2023/05/26 08:29:39;;;;;;;14.17;5.87;;;19.10;1.00;;;;;;4979742;28;20458;-72
2023/05/26 08:32:06;;;;;;;16.10;5.33;;;19.30;1.00;;;;;;4985112;28;20466;-74
2023/05/26 08:34:33;;;;;;;22.47;8.70;;;19.40;1.00;;;;;;4983742;28;20455;-73
2023/05/26 08:37:03;;;;;;;10.30;5.20;;;19.40;1.00;;;;;;4981754;28;20563;-73
2023/05/26 08:39:30;;;;;;;14.00;5.97;;;19.50;1.00;;;;;;4989814;28;20591;-75
2023/05/26 08:42:01;;;;;;;12.90;5.53;;;19.60;1.00;;;;;;4988261;28;20468;-75
2023/05/26 08:44:28;;;;;;;11.40;4.83;;;19.60;1.00;;;;;;4986807;28;21028;-72
2023/05/26 08:47:04;;;;;;;10.60;4.90;;;19.50;1.00;;;;;;4993618;28;20458;-73
2023/05/26 08:49:36;;;;;;;9.27;4.10;;;19.30;1.00;;;;;;4992652;28;20463;-75
2023/05/26 08:52:10;;;;;;;8.33;4.70;;;19.20;1.00;;;;;;4988808;28;20499;-74
2023/05/26 08:54:37;;;;;;;17.33;7.40;;;19.30;1.00;;;;;;4987865;28;20556;-74
2023/05/26 08:57:06;;;;;;;12.23;5.30;;;19.40;1.00;;;;;;4986582;28;20439;-77
2023/05/26 08:59:34;;;;;;;9.77;5.77;;;19.80;1.00;;;;;;4962581;28;20661;-72
2023/05/26 09:02:01;;;;;;;14.77;5.40;;;20.00;1.00;;;;;;4985079;28;20587;-74
2023/05/26 09:04:30;;;;;;;9.37;5.20;;;20.20;1.00;;;;;;4980657;28;20553;-73
2023/05/26 09:06:57;;;;;;;12.80;5.90;;;20.50;1.00;;;;;;4986151;28;21101;-74
2023/05/26 09:09:26;;;;;;;10.83;5.30;;;20.70;1.00;;;;;;4989325;28;20470;-73
2023/05/26 09:11:56;;;;;;;16.67;6.80;;;20.70;1.00;;;;;;4985196;28;20466;-74
2023/05/26 09:14:23;;;;;;;16.30;6.57;;;20.70;1.00;;;;;;4986804;28;20475;-74
2023/05/26 09:16:52;;;;;;;12.03;5.70;;;20.70;1.00;;;;;;4982190;28;20480;-74
2023/05/26 09:19:22;;;;;;;16.30;7.17;;;20.80;1.00;;;;;;4985542;28;20448;-74
2023/05/26 09:21:51;;;;;;;15.67;6.73;;;20.90;1.00;;;;;;4987447;28;20492;-74
2023/05/26 09:24:20;;;;;;;11.07;4.90;;;21.00;1.00;;;;;;4983560;28;20564;-75
2023/05/26 09:26:50;;;;;;;13.63;5.73;;;21.20;1.00;;;;;;4984923;28;20948;-75
2023/05/26 09:29:21;;;;;;;11.67;4.60;;;21.70;1.00;;;;;;4988165;28;21070;-74
2023/05/26 09:31:50;;;;;;;8.17;4.33;;;22.30;1.00;;;;;;4981081;28;21028;-74
2023/05/26 09:34:23;;;;;;;9.77;5.50;;;23.10;1.00;;;;;;4984218;28;20455;-76
2023/05/26 09:36:50;;;;;;;8.50;4.50;;;24.30;1.00;;;;;;4993917;28;20482;-77
2023/05/26 09:39:17;;;;;;;9.97;4.73;;;25.70;1.00;;;;;;4994897;28;20466;-75
2023/05/26 09:41:48;;;;;;;13.53;6.43;;;27.00;1.00;;;;;;4994307;28;20463;-76
2023/05/26 09:44:18;;;;;;;9.00;4.97;;;27.60;1.00;;;;;;4990509;28;20461;-75
2023/05/26 09:46:47;;;;;;;9.00;5.00;;;28.30;1.00;;;;;;4991909;28;20504;-76
2023/05/26 09:49:15;;;;;;;10.03;5.63;;;28.70;1.00;;;;;;4987948;28;20908;-75
2023/05/26 09:51:44;;;;;;;8.63;4.70;;;28.60;1.00;;;;;;4988585;28;20440;-77
2023/05/26 09:54:14;;;;;;;8.87;5.60;;;28.70;1.00;;;;;;4989824;28;20544;-78
2023/05/26 09:56:51;;;;;;;7.80;3.93;;;29.20;1.00;;;;;;4988382;28;20489;-75
2023/05/26 09:59:21;;;;;;;8.80;4.10;;;29.50;1.00;;;;;;4984371;28;20465;-74
2023/05/26 10:01:53;;;;;;;9.50;4.70;;;29.70;1.00;;;;;;4981469;28;20463;-74
2023/05/26 10:04:20;;;;;;;8.33;3.90;;;29.90;1.00;;;;;;4980032;28;20563;-76
2023/05/26 10:06:49;;;;;;;9.90;5.30;;;30.40;1.00;;;;;;4980478;28;22546;-74
2023/05/26 10:09:17;;;;;;;7.47;4.30;;;30.40;1.00;;;;;;4986719;28;20463;-74
2023/05/26 10:11:47;;;;;;;10.93;5.87;;;30.60;1.00;;;;;;4991760;28;21080;-77
2023/05/26 10:14:14;;;;;;;9.50;5.00;;;30.80;1.00;;;;;;4989289;28;20471;-77
2023/05/26 10:16:43;;;;;;;20.30;6.90;;;31.10;1.00;;;;;;4981182;28;20478;-80
2023/05/26 10:19:13;;;;;;;13.57;5.53;;;31.10;1.00;;;;;;4986521;28;20538;-79
2023/05/26 10:21:44;;;;;;;8.90;4.83;;;31.20;1.00;;;;;;4986621;28;20869;-75
2023/05/26 10:24:16;;;;;;;9.47;4.87;;;31.30;1.00;;;;;;4989368;28;20541;-75
2023/05/26 10:26:53;;;;;;;9.13;5.03;;;31.50;1.00;;;;;;4986432;28;22194;-76
2023/05/26 10:29:31;;;;;;;8.10;4.63;;;31.30;1.00;;;;;;4985601;28;20471;-76
2023/05/26 10:31:59;;;;;;;7.70;4.63;;;31.20;1.00;;;;;;4986522;28;20546;-76
2023/05/26 10:34:41;;;;;;;8.03;5.03;;;31.60;1.00;;;;;;4987338;28;20606;-76
2023/05/26 10:37:17;;;;;;;7.50;4.87;;;31.90;1.00;;;;;;4984534;28;21016;-75
2023/05/26 10:39:44;;;;;;;9.00;5.20;;;32.50;1.00;;;;;;4988155;28;20463;-73
2023/05/26 10:42:19;;;;;;;7.10;5.13;;;33.00;1.00;;;;;;4987776;28;20569;-75
2023/05/26 10:44:51;;;;;;;7.97;5.13;;;33.50;1.00;;;;;;4983552;28;20431;-78
2023/05/26 10:47:21;;;;;;;13.53;7.53;;;33.80;1.00;;;;;;4972560;28;20447;-81
2023/05/26 10:49:57;;;;;;;7.73;3.90;;;33.80;1.00;;;;;;4965496;28;20443;-76
2023/05/26 10:52:26;;;;;;;11.90;4.77;;;33.70;1.00;;;;;;4961336;28;20499;-77
2023/05/26 10:54:53;;;;;;;9.27;5.50;;;33.90;1.00;;;;;;4967083;28;20569;-75
2023/05/26 10:57:30;;;;;;;10.70;4.73;;;34.30;1.00;;;;;;4958450;28;20478;-73
2023/05/26 10:59:58;;;;;;;10.07;4.97;;;34.70;1.00;;;;;;4955292;28;20460;-77
2023/05/26 11:02:26;;;;;;;10.67;5.47;;;35.30;1.00;;;;;;4971284;28;20546;-77
2023/05/26 11:04:54;;;;;;;5.93;4.00;;;35.30;1.00;;;;;;4973029;28;20462;-76
2023/05/26 11:07:24;;;;;;;10.87;5.40;;;34.30;1.00;;;;;;4969712;28;20480;-76
2023/05/26 11:10:02;;;;;;;7.97;4.27;;;34.30;1.00;;;;;;4974460;28;20466;-75
2023/05/26 11:12:33;;;;;;;10.00;5.33;;;34.70;1.00;;;;;;4968735;28;20458;-76
2023/05/26 11:15:20;;;;;;;8.60;5.23;;;34.90;1.00;;;;;;4963504;28;20495;-77
2023/05/26 11:17:59;;;;;;;17.50;6.20;;;35.00;1.00;;;;;;4949396;28;20482;-77
2023/05/26 11:20:27;;;;;;;10.53;4.70;;;35.00;1.00;;;;;;4969115;28;20485;-76
2023/05/26 11:22:54;;;;;;;9.37;4.30;;;34.80;1.00;;;;;;4964748;28;20464;-75
2023/05/26 11:25:21;;;;;;;8.20;4.30;;;34.00;1.00;;;;;;4965340;28;20563;-75
2023/05/26 11:27:49;;;;;;;7.90;3.93;;;34.10;1.00;;;;;;4959693;28;20480;-74
2023/05/26 11:30:18;;;;;;;5.80;3.57;;;34.70;1.00;;;;;;4966540;28;20472;-73
2023/05/26 11:32:46;;;;;;;6.53;5.67;;;35.30;1.00;;;;;;4960633;28;20848;-75
2023/05/26 11:35:25;;;;;;;6.97;4.07;;;35.60;1.00;;;;;;4955566;28;20471;-76
2023/05/26 11:37:52;;;;;;;6.03;4.27;;;35.90;1.00;;;;;;4956552;28;20526;-80
2023/05/26 11:40:22;;;;;;;9.00;3.90;;;36.60;1.00;;;;;;4965274;28;21072;-77
2023/05/26 11:42:54;;;;;;;8.10;4.57;;;37.00;1.00;;;;;;4962948;28;20464;-79
2023/05/26 11:45:22;;;;;;;6.80;3.73;;;37.30;1.00;;;;;;4943504;28;20482;-78
2023/05/26 11:47:49;;;;;;;8.73;4.17;;;37.70;1.00;;;;;;4972253;28;20563;-78
2023/05/26 11:50:18;;;;;;;5.90;3.37;;;37.60;1.00;;;;;;4970200;28;20473;-78
2023/05/26 11:52:48;;;;;;;8.10;4.40;;;36.90;1.00;;;;;;4971215;28;20472;-78
2023/05/26 11:55:17;;;;;;;4.50;3.60;;;37.40;1.00;;;;;;4966053;28;20464;-78
2023/05/26 11:57:45;;;;;;;7.97;5.13;;;37.20;1.00;;;;;;4974484;28;20480;-77
2023/05/26 12:00:15;;;;;;;7.23;3.80;;;37.90;1.00;;;;;;4965150;28;20518;-77
2023/05/26 12:02:43;;;;;;;5.90;3.73;;;38.30;1.00;;;;;;4973186;28;20498;-78
2023/05/26 12:05:22;;;;;;;8.73;4.33;;;38.20;1.00;;;;;;4967720;28;20565;-79
2023/05/26 12:08:04;;;;;;;5.27;3.57;;;38.50;1.00;;;;;;4976032;28;20499;-78
2023/05/26 12:10:31;;;;;;;11.37;6.40;;;38.60;1.00;;;;;;4969049;28;20460;-77
2023/05/26 12:12:58;;;;;;;6.03;3.83;;;38.50;1.00;;;;;;4973390;28;20464;-77
2023/05/26 12:15:26;;;;;;;13.83;5.00;;;38.80;1.00;;;;;;4977107;28;21206;-77
2023/05/26 12:17:57;;;;;;;8.03;3.70;;;38.40;1.00;;;;;;4976363;28;20518;-79
2023/05/26 12:20:25;;;;;;;5.83;3.50;;;38.10;1.00;;;;;;4972363;28;20474;-78
2023/05/26 12:23:01;;;;;;;6.10;3.70;;;38.00;1.00;;;;;;4975576;28;20540;-78
2023/05/26 12:25:30;;;;;;;3.63;2.67;;;38.20;1.00;;;;;;4972130;28;20463;-77
2023/05/26 12:27:57;;;;;;;5.57;3.97;;;37.90;1.00;;;;;;4975679;28;20603;-79
2023/05/26 12:30:26;;;;;;;7.43;3.30;;;37.50;1.00;;;;;;4971311;28;20456;-77
2023/05/26 12:32:54;;;;;;;8.23;7.47;;;37.10;1.00;;;;;;4972048;28;20459;-80
2023/05/26 12:35:21;;;;;;;4.53;2.80;;;37.30;1.00;;;;;;4971599;28;20459;-77
2023/05/26 12:37:49;;;;;;;7.60;3.23;;;37.40;1.00;;;;;;4970510;28;20586;-78
2023/05/26 12:40:16;;;;;;;6.90;3.83;;;37.90;1.00;;;;;;4971034;28;20680;-77
2023/05/26 12:42:47;;;;;;;4.73;3.33;;;38.20;1.00;;;;;;4972978;28;20483;-76
2023/05/26 12:45:14;;;;;;;4.50;3.23;;;38.00;1.00;;;;;;4974743;28;20482;-77
2023/05/26 12:47:41;;;;;;;5.20;2.90;;;38.10;1.00;;;;;;4968354;28;20486;-77
2023/05/26 12:50:08;;;;;;;6.53;3.57;;;38.00;1.00;;;;;;4971685;28;20550;-78
2023/05/26 12:52:36;;;;;;;4.63;3.37;;;37.60;1.00;;;;;;4970769;28;20868;-77
2023/05/26 12:55:04;;;;;;;5.93;3.20;;;37.60;1.00;;;;;;4974570;28;20567;-76